sensor_id;sensor_type;location;lat;lon;timestamp;temperature;humidity
43810;DHT22;29440;48.208;11.162;2022-10-16T00:01:18;13.70;99.90
43810;DHT22;29440;48.208;11.162;2022-10-16T00:03:44;13.70;99.90
43810;DHT22;29440;48.208;11.162;2022-10-16T00:06:11;13.70;99.90
43810;DHT22;29440;48.208;11.162;2022-10-16T00:08:37;13.70;99.90
43810;DHT22;29440;48.208;11.162;2022-10-16T00:11:06;13.60;99.90
43810;DHT22;29440;48.208;11.162;2022-10-16T00:13:33;13.60;99.90
43810;DHT22;29440;48.208;11.162;2022-10-16T00:16:00;13.60;99.90
43810;DHT22;29440;48.208;11.162;2022-10-16T00:18:27;13.60;99.90
43810;DHT22;29440;48.208;11.162;2022-10-16T00:20:54;13.60;99.90
43810;DHT22;29440;48.208;11.162;2022-10-16T00:23:20;13.60;99.90
43810;DHT22;29440;48.208;11.162;2022-10-16T00:25:58;13.60;99.90
43810;DHT22;29440;48.208;11.162;2022-10-16T00:28:24;13.60;99.90
43810;DHT22;29440;48.208;11.162;2022-10-16T00:30:49;13.60;99.90
43810;DHT22;29440;48.208;11.162;2022-10-16T00:33:15;13.60;99.90
43810;DHT22;29440;48.208;11.162;2022-10-16T00:35:40;13.60;99.90
43810;DHT22;29440;48.208;11.162;2022-10-16T00:38:06;13.50;99.90
43810;DHT22;29440;48.208;11.162;2022-10-16T00:40:32;13.60;99.90
43810;DHT22;29440;48.208;11.162;2022-10-16T00:42:57;13.60;99.90
43810;DHT22;29440;48.208;11.162;2022-10-16T00:45:23;13.60;99.90
43810;DHT22;29440;48.208;11.162;2022-10-16T00:47:51;13.60;99.90
43810;DHT22;29440;48.208;11.162;2022-10-16T00:50:30;13.60;99.90
43810;DHT22;29440;48.208;11.162;2022-10-16T00:52:57;13.60;99.90
43810;DHT22;29440;48.208;11.162;2022-10-16T00:55:25;13.60;99.90
43810;DHT22;29440;48.208;11.162;2022-10-16T00:57:53;13.60;99.90
43810;DHT22;29440;48.208;11.162;2022-10-16T01:00:22;13.60;99.90
43810;DHT22;29440;48.208;11.162;2022-10-16T01:02:57;13.60;99.90
43810;DHT22;29440;48.208;11.162;2022-10-16T01:05:30;13.70;99.90
43810;DHT22;29440;48.208;11.162;2022-10-16T01:08:11;13.60;99.90
43810;DHT22;29440;48.208;11.162;2022-10-16T01:10:54;13.60;99.90
43810;DHT22;29440;48.208;11.162;2022-10-16T01:13:31;13.60;99.90
43810;DHT22;29440;48.208;11.162;2022-10-16T01:16:06;13.60;99.90
43810;DHT22;29440;48.208;11.162;2022-10-16T01:18:41;13.60;99.90
43810;DHT22;29440;48.208;11.162;2022-10-16T01:21:09;13.60;99.90
43810;DHT22;29440;48.208;11.162;2022-10-16T01:31:31;13.50;99.90
43810;DHT22;29440;48.208;11.162;2022-10-16T01:34:16;13.50;99.90
43810;DHT22;29440;48.208;11.162;2022-10-16T01:37:00;13.50;99.90
43810;DHT22;29440;48.208;11.162;2022-10-16T01:39:30;13.50;99.90
43810;DHT22;29440;48.208;11.162;2022-10-16T01:42:06;13.50;99.90
43810;DHT22;29440;48.208;11.162;2022-10-16T01:44:34;13.50;99.90
43810;DHT22;29440;48.208;11.162;2022-10-16T01:47:03;13.50;99.90
43810;DHT22;29440;48.208;11.162;2022-10-16T01:49:33;13.50;99.90
43810;DHT22;29440;48.208;11.162;2022-10-16T01:52:00;13.50;99.90
43810;DHT22;29440;48.208;11.162;2022-10-16T01:54:28;13.40;99.90
43810;DHT22;29440;48.208;11.162;2022-10-16T01:56:57;13.40;99.90
43810;DHT22;29440;48.208;11.162;2022-10-16T01:59:26;13.40;99.90
43810;DHT22;29440;48.208;11.162;2022-10-16T02:02:00;13.50;99.90
43810;DHT22;29440;48.208;11.162;2022-10-16T02:04:31;13.40;99.90
43810;DHT22;29440;48.208;11.162;2022-10-16T02:06:58;13.40;99.90
43810;DHT22;29440;48.208;11.162;2022-10-16T02:09:24;13.40;99.90
43810;DHT22;29440;48.208;11.162;2022-10-16T02:11:53;13.30;99.90
43810;DHT22;29440;48.208;11.162;2022-10-16T02:14:20;13.30;99.90
43810;DHT22;29440;48.208;11.162;2022-10-16T02:16:47;13.30;99.90
43810;DHT22;29440;48.208;11.162;2022-10-16T02:19:13;13.30;99.90
43810;DHT22;29440;48.208;11.162;2022-10-16T02:21:46;13.30;99.90
43810;DHT22;29440;48.208;11.162;2022-10-16T02:24:18;13.30;99.90
43810;DHT22;29440;48.208;11.162;2022-10-16T02:26:51;13.20;99.90
43810;DHT22;29440;48.208;11.162;2022-10-16T02:29:23;13.30;99.90
43810;DHT22;29440;48.208;11.162;2022-10-16T02:31:52;13.20;99.90
43810;DHT22;29440;48.208;11.162;2022-10-16T02:34:21;13.30;99.90
43810;DHT22;29440;48.208;11.162;2022-10-16T02:36:48;13.30;99.90
43810;DHT22;29440;48.208;11.162;2022-10-16T02:39:16;13.30;99.90
43810;DHT22;29440;48.208;11.162;2022-10-16T02:41:42;13.30;99.90
43810;DHT22;29440;48.208;11.162;2022-10-16T02:44:08;13.20;99.90
43810;DHT22;29440;48.208;11.162;2022-10-16T02:46:33;13.20;99.90
43810;DHT22;29440;48.208;11.162;2022-10-16T02:48:59;13.20;99.90
43810;DHT22;29440;48.208;11.162;2022-10-16T02:51:24;13.20;99.90
43810;DHT22;29440;48.208;11.162;2022-10-16T02:53:50;13.10;99.90
43810;DHT22;29440;48.208;11.162;2022-10-16T02:56:15;13.20;99.90
43810;DHT22;29440;48.208;11.162;2022-10-16T02:58:41;13.20;99.90
43810;DHT22;29440;48.208;11.162;2022-10-16T03:01:07;13.10;99.90
43810;DHT22;29440;48.208;11.162;2022-10-16T03:03:33;13.10;99.90
43810;DHT22;29440;48.208;11.162;2022-10-16T03:05:58;13.10;99.90
43810;DHT22;29440;48.208;11.162;2022-10-16T03:08:24;13.10;99.90
43810;DHT22;29440;48.208;11.162;2022-10-16T03:10:51;13.00;99.90
43810;DHT22;29440;48.208;11.162;2022-10-16T03:13:16;13.10;99.90
43810;DHT22;29440;48.208;11.162;2022-10-16T03:15:43;13.10;99.90
43810;DHT22;29440;48.208;11.162;2022-10-16T03:18:08;13.20;99.90
43810;DHT22;29440;48.208;11.162;2022-10-16T03:20:34;13.20;99.90
43810;DHT22;29440;48.208;11.162;2022-10-16T03:22:59;13.20;99.90
43810;DHT22;29440;48.208;11.162;2022-10-16T03:25:25;13.20;99.90
43810;DHT22;29440;48.208;11.162;2022-10-16T03:27:51;13.20;99.90
43810;DHT22;29440;48.208;11.162;2022-10-16T03:30:16;13.30;99.90
43810;DHT22;29440;48.208;11.162;2022-10-16T03:32:43;13.30;99.90
43810;DHT22;29440;48.208;11.162;2022-10-16T03:35:09;13.30;99.90
43810;DHT22;29440;48.208;11.162;2022-10-16T03:37:35;13.30;99.90
43810;DHT22;29440;48.208;11.162;2022-10-16T03:40:00;13.30;99.90
43810;DHT22;29440;48.208;11.162;2022-10-16T03:42:26;13.30;99.90
43810;DHT22;29440;48.208;11.162;2022-10-16T03:44:52;13.40;99.90
43810;DHT22;29440;48.208;11.162;2022-10-16T03:47:17;13.40;99.90
43810;DHT22;29440;48.208;11.162;2022-10-16T03:49:47;13.40;99.90
43810;DHT22;29440;48.208;11.162;2022-10-16T03:52:12;13.40;99.90
43810;DHT22;29440;48.208;11.162;2022-10-16T03:54:38;13.50;99.90
43810;DHT22;29440;48.208;11.162;2022-10-16T03:57:03;13.40;99.90
43810;DHT22;29440;48.208;11.162;2022-10-16T03:59:29;13.40;99.90
43810;DHT22;29440;48.208;11.162;2022-10-16T04:01:54;13.40;99.90
43810;DHT22;29440;48.208;11.162;2022-10-16T04:04:20;13.50;99.90
43810;DHT22;29440;48.208;11.162;2022-10-16T04:06:46;13.50;99.90
43810;DHT22;29440;48.208;11.162;2022-10-16T04:09:11;13.50;99.90
43810;DHT22;29440;48.208;11.162;2022-10-16T04:11:37;13.60;99.90
43810;DHT22;29440;48.208;11.162;2022-10-16T04:14:02;13.60;99.90
43810;DHT22;29440;48.208;11.162;2022-10-16T04:16:28;13.60;99.90
43810;DHT22;29440;48.208;11.162;2022-10-16T04:18:53;13.60;99.90
43810;DHT22;29440;48.208;11.162;2022-10-16T04:21:19;13.60;99.90
43810;DHT22;29440;48.208;11.162;2022-10-16T04:23:44;13.60;99.90
43810;DHT22;29440;48.208;11.162;2022-10-16T04:26:10;13.60;99.90
43810;DHT22;29440;48.208;11.162;2022-10-16T04:28:36;13.50;99.90
43810;DHT22;29440;48.208;11.162;2022-10-16T04:31:04;13.60;99.90
43810;DHT22;29440;48.208;11.162;2022-10-16T04:33:29;13.60;99.90
43810;DHT22;29440;48.208;11.162;2022-10-16T04:36:00;13.60;99.90
43810;DHT22;29440;48.208;11.162;2022-10-16T04:38:26;13.60;99.90
43810;DHT22;29440;48.208;11.162;2022-10-16T04:40:52;13.60;99.90
43810;DHT22;29440;48.208;11.162;2022-10-16T04:43:18;13.60;99.90
43810;DHT22;29440;48.208;11.162;2022-10-16T04:45:44;13.60;99.90
43810;DHT22;29440;48.208;11.162;2022-10-16T04:48:10;13.60;99.90
43810;DHT22;29440;48.208;11.162;2022-10-16T04:50:35;13.60;99.90
43810;DHT22;29440;48.208;11.162;2022-10-16T04:53:01;13.60;99.90
43810;DHT22;29440;48.208;11.162;2022-10-16T04:55:26;13.60;99.90
43810;DHT22;29440;48.208;11.162;2022-10-16T04:57:52;13.70;99.90
43810;DHT22;29440;48.208;11.162;2022-10-16T05:00:17;13.80;99.90
43810;DHT22;29440;48.208;11.162;2022-10-16T05:02:43;13.60;99.90
43810;DHT22;29440;48.208;11.162;2022-10-16T05:05:09;13.60;99.90
43810;DHT22;29440;48.208;11.162;2022-10-16T05:07:35;13.70;99.90
43810;DHT22;29440;48.208;11.162;2022-10-16T05:10:00;13.60;99.90
43810;DHT22;29440;48.208;11.162;2022-10-16T05:12:26;13.60;99.90
43810;DHT22;29440;48.208;11.162;2022-10-16T05:14:51;13.60;99.90
43810;DHT22;29440;48.208;11.162;2022-10-16T05:17:17;13.50;99.90
43810;DHT22;29440;48.208;11.162;2022-10-16T05:19:42;13.50;99.90
43810;DHT22;29440;48.208;11.162;2022-10-16T05:22:08;13.50;99.90
43810;DHT22;29440;48.208;11.162;2022-10-16T05:24:34;13.50;99.90
43810;DHT22;29440;48.208;11.162;2022-10-16T05:26:59;13.50;99.90
43810;DHT22;29440;48.208;11.162;2022-10-16T05:29:25;13.40;99.90
43810;DHT22;29440;48.208;11.162;2022-10-16T05:31:52;13.50;99.90
43810;DHT22;29440;48.208;11.162;2022-10-16T05:34:18;13.40;99.90
43810;DHT22;29440;48.208;11.162;2022-10-16T05:36:44;13.40;99.90
43810;DHT22;29440;48.208;11.162;2022-10-16T05:39:11;13.50;99.90
43810;DHT22;29440;48.208;11.162;2022-10-16T05:41:36;13.40;99.90
43810;DHT22;29440;48.208;11.162;2022-10-16T05:44:05;13.40;99.90
43810;DHT22;29440;48.208;11.162;2022-10-16T05:46:32;13.40;99.90
43810;DHT22;29440;48.208;11.162;2022-10-16T05:48:57;13.40;99.90
43810;DHT22;29440;48.208;11.162;2022-10-16T05:51:23;13.40;99.90
43810;DHT22;29440;48.208;11.162;2022-10-16T05:53:49;13.40;99.90
43810;DHT22;29440;48.208;11.162;2022-10-16T05:56:14;13.50;99.90
43810;DHT22;29440;48.208;11.162;2022-10-16T05:58:40;13.50;99.90
43810;DHT22;29440;48.208;11.162;2022-10-16T06:01:10;13.40;99.90
43810;DHT22;29440;48.208;11.162;2022-10-16T06:03:36;13.40;99.90
43810;DHT22;29440;48.208;11.162;2022-10-16T06:06:13;13.40;99.90
43810;DHT22;29440;48.208;11.162;2022-10-16T06:08:40;13.40;99.90
43810;DHT22;29440;48.208;11.162;2022-10-16T06:11:11;13.50;99.90
43810;DHT22;29440;48.208;11.162;2022-10-16T06:13:37;13.50;99.90
43810;DHT22;29440;48.208;11.162;2022-10-16T06:16:04;13.50;99.90
43810;DHT22;29440;48.208;11.162;2022-10-16T06:18:30;13.50;99.90
43810;DHT22;29440;48.208;11.162;2022-10-16T06:20:56;13.60;99.90
43810;DHT22;29440;48.208;11.162;2022-10-16T06:23:23;13.60;99.90
43810;DHT22;29440;48.208;11.162;2022-10-16T06:25:48;13.70;99.90
43810;DHT22;29440;48.208;11.162;2022-10-16T06:28:15;13.90;99.90
43810;DHT22;29440;48.208;11.162;2022-10-16T06:30:41;13.80;99.90
43810;DHT22;29440;48.208;11.162;2022-10-16T06:33:08;13.80;99.90
43810;DHT22;29440;48.208;11.162;2022-10-16T06:35:33;13.90;99.90
43810;DHT22;29440;48.208;11.162;2022-10-16T06:37:59;13.80;99.90
43810;DHT22;29440;48.208;11.162;2022-10-16T06:40:24;13.70;99.90
43810;DHT22;29440;48.208;11.162;2022-10-16T06:42:50;13.70;99.90
43810;DHT22;29440;48.208;11.162;2022-10-16T06:45:17;13.70;99.90
43810;DHT22;29440;48.208;11.162;2022-10-16T06:47:42;13.70;99.90
43810;DHT22;29440;48.208;11.162;2022-10-16T06:50:08;13.70;99.90
43810;DHT22;29440;48.208;11.162;2022-10-16T06:52:34;13.80;99.90
43810;DHT22;29440;48.208;11.162;2022-10-16T06:55:02;13.80;99.90
43810;DHT22;29440;48.208;11.162;2022-10-16T06:57:28;14.10;99.90
43810;DHT22;29440;48.208;11.162;2022-10-16T06:59:54;14.30;99.90
43810;DHT22;29440;48.208;11.162;2022-10-16T07:02:20;14.50;99.90
43810;DHT22;29440;48.208;11.162;2022-10-16T07:04:45;14.80;99.90
43810;DHT22;29440;48.208;11.162;2022-10-16T07:07:11;15.20;99.90
43810;DHT22;29440;48.208;11.162;2022-10-16T07:09:36;15.80;99.90
43810;DHT22;29440;48.208;11.162;2022-10-16T07:12:02;16.70;99.90
43810;DHT22;29440;48.208;11.162;2022-10-16T07:14:28;17.60;99.90
43810;DHT22;29440;48.208;11.162;2022-10-16T07:16:53;18.70;99.90
43810;DHT22;29440;48.208;11.162;2022-10-16T07:19:19;19.30;99.90
43810;DHT22;29440;48.208;11.162;2022-10-16T07:21:44;19.90;99.90
43810;DHT22;29440;48.208;11.162;2022-10-16T07:24:15;20.40;99.90
43810;DHT22;29440;48.208;11.162;2022-10-16T07:26:42;20.60;99.90
43810;DHT22;29440;48.208;11.162;2022-10-16T07:29:18;20.90;99.90
43810;DHT22;29440;48.208;11.162;2022-10-16T07:31:44;21.60;99.90
43810;DHT22;29440;48.208;11.162;2022-10-16T07:34:12;22.00;99.90
43810;DHT22;29440;48.208;11.162;2022-10-16T07:36:38;22.60;99.90
43810;DHT22;29440;48.208;11.162;2022-10-16T07:39:03;23.30;99.90
43810;DHT22;29440;48.208;11.162;2022-10-16T07:41:29;23.90;99.90
43810;DHT22;29440;48.208;11.162;2022-10-16T07:43:56;24.30;99.90
43810;DHT22;29440;48.208;11.162;2022-10-16T07:46:26;24.70;99.90
43810;DHT22;29440;48.208;11.162;2022-10-16T07:48:52;25.10;99.90
43810;DHT22;29440;48.208;11.162;2022-10-16T07:51:19;25.20;99.90
43810;DHT22;29440;48.208;11.162;2022-10-16T07:53:46;25.50;99.90
43810;DHT22;29440;48.208;11.162;2022-10-16T07:56:12;25.80;99.90
43810;DHT22;29440;48.208;11.162;2022-10-16T07:58:37;26.10;99.90
43810;DHT22;29440;48.208;11.162;2022-10-16T08:01:05;26.20;99.90
43810;DHT22;29440;48.208;11.162;2022-10-16T08:03:31;26.00;99.90
43810;DHT22;29440;48.208;11.162;2022-10-16T08:05:58;26.00;99.00
43810;DHT22;29440;48.208;11.162;2022-10-16T08:08:23;25.80;99.60
43810;DHT22;29440;48.208;11.162;2022-10-16T08:10:49;26.00;99.90
43810;DHT22;29440;48.208;11.162;2022-10-16T08:13:15;26.00;98.70
43810;DHT22;29440;48.208;11.162;2022-10-16T08:15:42;26.20;99.30
43810;DHT22;29440;48.208;11.162;2022-10-16T08:18:08;26.20;98.60
43810;DHT22;29440;48.208;11.162;2022-10-16T08:20:34;26.50;98.50
43810;DHT22;29440;48.208;11.162;2022-10-16T08:23:00;26.30;97.50
43810;DHT22;29440;48.208;11.162;2022-10-16T08:25:26;26.40;96.50
43810;DHT22;29440;48.208;11.162;2022-10-16T08:27:52;26.50;97.90
43810;DHT22;29440;48.208;11.162;2022-10-16T08:30:19;26.50;96.60
43810;DHT22;29440;48.208;11.162;2022-10-16T08:32:46;26.50;96.80
43810;DHT22;29440;48.208;11.162;2022-10-16T08:35:12;26.60;97.40
43810;DHT22;29440;48.208;11.162;2022-10-16T08:37:38;26.70;97.50
43810;DHT22;29440;48.208;11.162;2022-10-16T08:40:07;26.70;96.00
43810;DHT22;29440;48.208;11.162;2022-10-16T08:45:19;26.70;96.80
43810;DHT22;29440;48.208;11.162;2022-10-16T08:50:50;26.30;96.70
43810;DHT22;29440;48.208;11.162;2022-10-16T08:53:35;25.90;98.20
43810;DHT22;29440;48.208;11.162;2022-10-16T08:56:03;25.80;97.60
43810;DHT22;29440;48.208;11.162;2022-10-16T08:58:30;25.70;98.10
43810;DHT22;29440;48.208;11.162;2022-10-16T09:00:58;25.70;98.80
43810;DHT22;29440;48.208;11.162;2022-10-16T09:11:51;25.10;99.60
43810;DHT22;29440;48.208;11.162;2022-10-16T09:22:43;24.90;99.90
43810;DHT22;29440;48.208;11.162;2022-10-16T09:25:15;24.80;99.90
43810;DHT22;29440;48.208;11.162;2022-10-16T09:27:44;24.90;99.90
43810;DHT22;29440;48.208;11.162;2022-10-16T09:30:19;24.90;99.90
43810;DHT22;29440;48.208;11.162;2022-10-16T09:32:48;24.90;99.90
43810;DHT22;29440;48.208;11.162;2022-10-16T09:35:21;25.00;99.90
43810;DHT22;29440;48.208;11.162;2022-10-16T09:37:50;25.00;99.90
43810;DHT22;29440;48.208;11.162;2022-10-16T09:40:28;25.10;99.90
43810;DHT22;29440;48.208;11.162;2022-10-16T09:43:01;25.00;99.90
43810;DHT22;29440;48.208;11.162;2022-10-16T09:45:28;25.00;99.90
43810;DHT22;29440;48.208;11.162;2022-10-16T09:47:54;25.00;99.90
43810;DHT22;29440;48.208;11.162;2022-10-16T09:50:23;25.00;99.00
43810;DHT22;29440;48.208;11.162;2022-10-16T09:52:50;24.80;99.90
43810;DHT22;29440;48.208;11.162;2022-10-16T09:55:18;24.80;99.90
43810;DHT22;29440;48.208;11.162;2022-10-16T09:57:51;24.70;99.90
43810;DHT22;29440;48.208;11.162;2022-10-16T10:00:17;24.70;99.20
43810;DHT22;29440;48.208;11.162;2022-10-16T10:02:44;24.60;99.10
43810;DHT22;29440;48.208;11.162;2022-10-16T10:05:27;24.50;99.40
43810;DHT22;29440;48.208;11.162;2022-10-16T10:07:59;24.60;99.60
43810;DHT22;29440;48.208;11.162;2022-10-16T10:10:28;24.60;99.60
43810;DHT22;29440;48.208;11.162;2022-10-16T10:12:54;24.70;98.90
43810;DHT22;29440;48.208;11.162;2022-10-16T10:15:20;24.70;99.80
43810;DHT22;29440;48.208;11.162;2022-10-16T10:17:54;24.70;99.40
43810;DHT22;29440;48.208;11.162;2022-10-16T10:20:30;24.90;98.00
43810;DHT22;29440;48.208;11.162;2022-10-16T10:22:58;24.70;99.00
43810;DHT22;29440;48.208;11.162;2022-10-16T10:25:49;24.70;98.50
43810;DHT22;29440;48.208;11.162;2022-10-16T10:31:14;24.40;98.90
43810;DHT22;29440;48.208;11.162;2022-10-16T10:33:56;24.20;99.00
43810;DHT22;29440;48.208;11.162;2022-10-16T10:36:34;24.00;99.70
43810;DHT22;29440;48.208;11.162;2022-10-16T10:44:47;24.20;99.80
43810;DHT22;29440;48.208;11.162;2022-10-16T10:47:36;24.20;98.80
43810;DHT22;29440;48.208;11.162;2022-10-16T10:50:20;24.20;99.00
43810;DHT22;29440;48.208;11.162;2022-10-16T10:52:52;24.10;99.60
43810;DHT22;29440;48.208;11.162;2022-10-16T10:55:44;24.20;99.80
43810;DHT22;29440;48.208;11.162;2022-10-16T10:58:34;24.20;99.90
43810;DHT22;29440;48.208;11.162;2022-10-16T11:01:15;24.40;99.90
43810;DHT22;29440;48.208;11.162;2022-10-16T11:04:16;24.40;99.90
43810;DHT22;29440;48.208;11.162;2022-10-16T11:06:51;24.50;99.90
43810;DHT22;29440;48.208;11.162;2022-10-16T11:09:39;24.60;99.90
43810;DHT22;29440;48.208;11.162;2022-10-16T11:12:22;24.70;99.40
43810;DHT22;29440;48.208;11.162;2022-10-16T11:14:58;24.80;97.50
43810;DHT22;29440;48.208;11.162;2022-10-16T11:17:33;24.80;97.60
43810;DHT22;29440;48.208;11.162;2022-10-16T11:20:31;24.80;97.70
43810;DHT22;29440;48.208;11.162;2022-10-16T11:23:08;24.80;98.10
43810;DHT22;29440;48.208;11.162;2022-10-16T11:25:36;24.60;98.40
43810;DHT22;29440;48.208;11.162;2022-10-16T11:31:24;24.50;98.50
43810;DHT22;29440;48.208;11.162;2022-10-16T11:34:02;24.50;98.30
43810;DHT22;29440;48.208;11.162;2022-10-16T11:36:43;24.30;98.00
43810;DHT22;29440;48.208;11.162;2022-10-16T11:39:24;24.30;98.90
43810;DHT22;29440;48.208;11.162;2022-10-16T11:47:35;24.50;97.50
43810;DHT22;29440;48.208;11.162;2022-10-16T11:50:39;24.60;96.70
43810;DHT22;29440;48.208;11.162;2022-10-16T11:55:53;24.90;96.00
43810;DHT22;29440;48.208;11.162;2022-10-16T12:01:22;25.10;97.50
43810;DHT22;29440;48.208;11.162;2022-10-16T12:09:36;25.30;97.90
43810;DHT22;29440;48.208;11.162;2022-10-16T12:12:02;25.30;96.60
43810;DHT22;29440;48.208;11.162;2022-10-16T12:14:42;25.40;95.60
43810;DHT22;29440;48.208;11.162;2022-10-16T12:20:19;25.60;97.70
43810;DHT22;29440;48.208;11.162;2022-10-16T12:22:55;25.70;96.20
43810;DHT22;29440;48.208;11.162;2022-10-16T12:25:35;25.60;95.20
43810;DHT22;29440;48.208;11.162;2022-10-16T12:30:42;25.60;94.60
43810;DHT22;29440;48.208;11.162;2022-10-16T12:35:49;25.60;96.50
43810;DHT22;29440;48.208;11.162;2022-10-16T12:38:26;25.70;94.80
43810;DHT22;29440;48.208;11.162;2022-10-16T12:41:01;25.80;94.20
43810;DHT22;29440;48.208;11.162;2022-10-16T12:43:34;25.80;94.70
43810;DHT22;29440;48.208;11.162;2022-10-16T12:46:24;25.70;94.70
43810;DHT22;29440;48.208;11.162;2022-10-16T12:51:41;25.80;93.70
43810;DHT22;29440;48.208;11.162;2022-10-16T12:59:57;25.80;93.20
43810;DHT22;29440;48.208;11.162;2022-10-16T13:02:56;25.70;92.00
43810;DHT22;29440;48.208;11.162;2022-10-16T13:08:48;25.80;94.20
43810;DHT22;29440;48.208;11.162;2022-10-16T13:14:35;25.70;91.50
43810;DHT22;29440;48.208;11.162;2022-10-16T13:17:30;25.70;87.90
43810;DHT22;29440;48.208;11.162;2022-10-16T13:20:25;25.70;91.40
43810;DHT22;29440;48.208;11.162;2022-10-16T13:23:06;25.70;92.30
43810;DHT22;29440;48.208;11.162;2022-10-16T13:25:58;25.80;91.20
43810;DHT22;29440;48.208;11.162;2022-10-16T13:28:32;25.70;91.40
43810;DHT22;29440;48.208;11.162;2022-10-16T13:30:59;25.80;92.90
43810;DHT22;29440;48.208;11.162;2022-10-16T13:33:33;25.80;92.90
43810;DHT22;29440;48.208;11.162;2022-10-16T13:35:59;25.80;91.90
43810;DHT22;29440;48.208;11.162;2022-10-16T13:38:27;25.80;93.20
43810;DHT22;29440;48.208;11.162;2022-10-16T13:40:57;25.80;92.20
43810;DHT22;29440;48.208;11.162;2022-10-16T13:45:59;25.80;90.60
43810;DHT22;29440;48.208;11.162;2022-10-16T13:48:26;25.80;91.20
43810;DHT22;29440;48.208;11.162;2022-10-16T13:51:17;25.70;92.40
43810;DHT22;29440;48.208;11.162;2022-10-16T13:53:44;25.70;93.10
43810;DHT22;29440;48.208;11.162;2022-10-16T13:56:12;25.70;91.10
43810;DHT22;29440;48.208;11.162;2022-10-16T13:58:38;25.70;93.00
43810;DHT22;29440;48.208;11.162;2022-10-16T14:01:11;25.60;92.10
43810;DHT22;29440;48.208;11.162;2022-10-16T14:03:40;25.60;93.10
43810;DHT22;29440;48.208;11.162;2022-10-16T14:06:12;25.50;93.50
43810;DHT22;29440;48.208;11.162;2022-10-16T14:08:46;25.50;93.60
43810;DHT22;29440;48.208;11.162;2022-10-16T14:11:21;25.50;93.60
43810;DHT22;29440;48.208;11.162;2022-10-16T14:13:48;25.40;93.40
43810;DHT22;29440;48.208;11.162;2022-10-16T14:16:20;25.40;94.80
43810;DHT22;29440;48.208;11.162;2022-10-16T14:19:33;25.40;93.10
43810;DHT22;29440;48.208;11.162;2022-10-16T14:21:37;25.30;93.00
43810;DHT22;29440;48.208;11.162;2022-10-16T14:24:13;25.30;92.80
43810;DHT22;29440;48.208;11.162;2022-10-16T14:26:47;25.20;93.10
43810;DHT22;29440;48.208;11.162;2022-10-16T14:29:17;25.10;92.60
43810;DHT22;29440;48.208;11.162;2022-10-16T14:32:04;25.00;93.70
43810;DHT22;29440;48.208;11.162;2022-10-16T14:34:34;25.00;91.90
43810;DHT22;29440;48.208;11.162;2022-10-16T14:37:27;25.00;94.10
43810;DHT22;29440;48.208;11.162;2022-10-16T14:39:54;24.90;92.90
43810;DHT22;29440;48.208;11.162;2022-10-16T14:42:22;24.80;92.00
43810;DHT22;29440;48.208;11.162;2022-10-16T14:44:52;24.70;93.30
43810;DHT22;29440;48.208;11.162;2022-10-16T14:47:21;24.60;92.50
43810;DHT22;29440;48.208;11.162;2022-10-16T14:49:47;24.50;93.90
43810;DHT22;29440;48.208;11.162;2022-10-16T14:52:13;24.50;95.40
43810;DHT22;29440;48.208;11.162;2022-10-16T14:54:40;24.40;96.00
43810;DHT22;29440;48.208;11.162;2022-10-16T14:57:18;24.40;96.00
43810;DHT22;29440;48.208;11.162;2022-10-16T14:59:44;24.30;96.60
43810;DHT22;29440;48.208;11.162;2022-10-16T15:04:50;24.00;94.60
43810;DHT22;29440;48.208;11.162;2022-10-16T15:07:16;23.90;95.40
43810;DHT22;29440;48.208;11.162;2022-10-16T15:09:42;23.90;95.20
43810;DHT22;29440;48.208;11.162;2022-10-16T15:12:08;23.80;94.40
43810;DHT22;29440;48.208;11.162;2022-10-16T15:14:33;23.70;94.90
43810;DHT22;29440;48.208;11.162;2022-10-16T15:16:59;23.60;95.50
43810;DHT22;29440;48.208;11.162;2022-10-16T15:19:24;23.50;95.80
43810;DHT22;29440;48.208;11.162;2022-10-16T15:21:50;23.40;95.90
43810;DHT22;29440;48.208;11.162;2022-10-16T15:24:16;23.40;96.70
43810;DHT22;29440;48.208;11.162;2022-10-16T15:26:41;23.30;95.80
43810;DHT22;29440;48.208;11.162;2022-10-16T15:29:07;23.20;95.60
43810;DHT22;29440;48.208;11.162;2022-10-16T15:31:33;23.20;96.00
43810;DHT22;29440;48.208;11.162;2022-10-16T15:33:59;23.10;95.50
43810;DHT22;29440;48.208;11.162;2022-10-16T15:36:32;23.00;96.50
43810;DHT22;29440;48.208;11.162;2022-10-16T15:39:20;23.00;96.90
43810;DHT22;29440;48.208;11.162;2022-10-16T15:41:47;22.90;96.30
43810;DHT22;29440;48.208;11.162;2022-10-16T15:44:19;22.90;97.90
43810;DHT22;29440;48.208;11.162;2022-10-16T15:46:46;22.90;98.80
43810;DHT22;29440;48.208;11.162;2022-10-16T15:49:12;22.80;99.10
43810;DHT22;29440;48.208;11.162;2022-10-16T15:51:39;22.80;99.10
43810;DHT22;29440;48.208;11.162;2022-10-16T15:54:05;22.70;99.40
43810;DHT22;29440;48.208;11.162;2022-10-16T15:56:31;22.70;99.60
43810;DHT22;29440;48.208;11.162;2022-10-16T15:58:59;22.60;99.70
43810;DHT22;29440;48.208;11.162;2022-10-16T16:01:25;22.50;99.90
43810;DHT22;29440;48.208;11.162;2022-10-16T16:03:55;22.40;99.90
43810;DHT22;29440;48.208;11.162;2022-10-16T16:06:22;22.30;99.90
43810;DHT22;29440;48.208;11.162;2022-10-16T16:08:49;22.30;99.90
43810;DHT22;29440;48.208;11.162;2022-10-16T16:11:16;22.10;99.90
43810;DHT22;29440;48.208;11.162;2022-10-16T16:13:42;22.10;99.90
43810;DHT22;29440;48.208;11.162;2022-10-16T16:16:09;22.00;99.90
43810;DHT22;29440;48.208;11.162;2022-10-16T16:18:36;21.90;99.90
43810;DHT22;29440;48.208;11.162;2022-10-16T16:21:02;21.80;99.90
43810;DHT22;29440;48.208;11.162;2022-10-16T16:23:27;21.70;99.90
43810;DHT22;29440;48.208;11.162;2022-10-16T16:26:22;21.60;99.90
43810;DHT22;29440;48.208;11.162;2022-10-16T16:28:52;21.50;99.90
43810;DHT22;29440;48.208;11.162;2022-10-16T16:31:18;21.40;99.90
43810;DHT22;29440;48.208;11.162;2022-10-16T16:33:43;21.40;99.90
43810;DHT22;29440;48.208;11.162;2022-10-16T16:36:09;21.20;99.90
43810;DHT22;29440;48.208;11.162;2022-10-16T16:38:35;21.10;99.90
43810;DHT22;29440;48.208;11.162;2022-10-16T16:41:14;21.00;99.90
43810;DHT22;29440;48.208;11.162;2022-10-16T16:43:40;21.00;99.90
43810;DHT22;29440;48.208;11.162;2022-10-16T16:46:06;20.90;99.90
43810;DHT22;29440;48.208;11.162;2022-10-16T16:48:32;20.90;99.90
43810;DHT22;29440;48.208;11.162;2022-10-16T16:51:09;20.70;99.90
43810;DHT22;29440;48.208;11.162;2022-10-16T16:53:36;20.60;99.90
43810;DHT22;29440;48.208;11.162;2022-10-16T16:56:03;20.60;99.90
43810;DHT22;29440;48.208;11.162;2022-10-16T16:58:29;20.40;99.90